Englewood, CO (80155)

12:51 PM MDT on September 04, 2015 (GMT -0600)
Walnut Hills | | Change Station
CLOSE
Current Station
Personal Weather Station
Location: Centennial, CO
Elevation: 5800 ft
Nearby Weather Stations

Elev 5800 ft 39.59 °N, 104.89 °W | Updated 15 minutes ago

Mostly Cloudy
Mostly Cloudy
81.1 °F
Feels Like 80 °F
N
4.0
Wind Variable Wind from SE
Gusts 12.0 mph

Today
High -- | Low -- °F
--% Chance of Precip.
Yesterday
High -- | Low -- °F
Precip. -- in
6:30 AM 7:26 PM
Waning Gibbous, 57% visible
Pressure 29.85 in
Visibility 10.0 miles
Clouds Few 8000 ft
Few 14000 ft
Scattered Clouds 18000 ft
Mostly Cloudy 22000 ft
Heat Index 80 °F
Dew Point 43 °F
Humidity 26%
Rainfall Not available.
Snow Depth Not available.
UV 5 out of 12
Pollen 10.10 out of 12
Air Quality Not available.
Flu Activity Not available.
METAR KAPA 041753Z VRB06KT 10SM FEW080 FEW140 SCT180 BKN220 27/06 A3006 RMK AO2 SLP107 T02670056 10272 20133 58002
Pressure 29.85 in
Visibility 10.0 miles
Clouds Few 8000 ft
Few 14000 ft
Scattered Clouds 18000 ft
Mostly Cloudy 22000 ft
Heat Index 80 °F
Dew Point 43 °F
Humidity 26%
Rainfall Not available.
Snow Depth Not available.
UV 5 out of 12
Pollen 10.10 out of 12
Air Quality Not available.
Flu Activity Not available.
METAR KAPA 041753Z VRB06KT 10SM FEW080 FEW140 SCT180 BKN220 27/06 A3006 RMK AO2 SLP107 T02670056 10272 20133 58002

10-Day Weather Forecast

×

Almanac

Astronomy

Sep. 04, 2015 Rise Set
Actual Time
Civil Twilight
Nautical Twilight
Astronomical Twilight
Moon
Length of Visible Light
Length of Day
Tomorrow will be .
, % of the Moon is Illuminated

Today's Extremes

State Highs State Lows

Community

WunderPhotos

Upload Photos

1,852,262 photos uploaded!

WunderBlogs® & News

Nearby

Air Quality

  Air Quality AQ Index Pollutant
Not available.

Snow Depth

Station Depth Elevation

Earthquake Activity

City Distance Mag. Time & Date
Minimum magnitude displayed is 2.5.

Coastal Water Temperatures

Place Temperature

Stations

Nearby Weather Stations

Station Location Temp. Windchill Dew Point Humidity Wind Precip. Elev Updated Type